Time;durP1;ratioP1;P1;durP2;ratioP2;P2;SDS_P1;SDS_P2;PMS_P1;PMS_P2;Temp;Humidity;BMP_temperature;BMP_pressure;BME280_temperature;BME280_humidity;BME280_pressure;Samples;Min_cycle;Max_cycle;Signal;HPM_P1;HPM_P2
2021/12/27 00:01:19;;;;;;;27.35;18.73;;;;;;;;;;5511158;23;20072;-82
2021/12/27 00:03:50;;;;;;;18.50;12.07;;;;;;;;;;4984746;28;20076;-80
2021/12/27 00:06:17;;;;;;;22.65;16.30;;;;;;;;;;5000394;28;20485;-80
2021/12/27 00:08:47;;;;;;;17.38;12.20;;;;;;;;;;4992691;28;20037;-81
2021/12/27 00:11:15;;;;;;;15.20;9.27;;;;;;;;;;4996311;28;20025;-80
2021/12/27 00:13:43;;;;;;;16.13;9.88;;;;;;;;;;5015716;28;20060;-80
2021/12/27 00:16:10;;;;;;;14.23;8.00;;;;;;;;;;4997853;28;20048;-80
2021/12/27 00:18:36;;;;;;;;;;;;;;;;;;4997975;28;20037;-80
2021/12/27 00:21:03;;;;;;;13.00;6.10;;;;;;;;;;4996864;28;21188;-80
2021/12/27 00:23:31;;;;;;;12.23;5.63;;;;;;;;;;4995642;28;20014;-80
2021/12/27 00:25:57;;;;;;;12.75;5.65;;;;;;;;;;4986600;28;20042;-80
2021/12/27 00:28:27;;;;;;;14.02;5.68;;;;;;;;;;4994991;28;20116;-81
2021/12/27 00:30:55;;;;;;;14.07;7.05;;;;;;;;;;4989956;28;20124;-80
2021/12/27 00:33:25;;;;;;;14.95;8.43;;;;;;;;;;4991156;28;20585;-80
2021/12/27 00:35:53;;;;;;;17.88;9.63;;;;;;;;;;4976908;28;20037;-80
2021/12/27 00:38:19;;;;;;;13.52;7.60;;;;;;;;;;4989289;28;20081;-80
2021/12/27 00:40:45;;;;;;;;;;;;;;;;;;4990138;28;20056;-80
2021/12/27 00:43:16;;;;;;;17.30;9.23;;;;;;;;;;4994372;28;19917;-80
2021/12/27 00:45:44;;;;;;;13.00;4.88;;;;;;;;;;5000459;28;20033;-82
2021/12/27 00:48:11;;;;;;;10.23;3.88;;;;;;;;;;4998526;28;20750;-80
2021/12/27 00:50:38;;;;;;;13.18;4.00;;;;;;;;;;5001795;28;20608;-79
2021/12/27 00:53:06;;;;;;;12.95;6.30;;;;;;;;;;4994891;28;20038;-80
2021/12/27 00:55:33;;;;;;;15.70;8.73;;;;;;;;;;4991630;28;20030;-82
2021/12/27 00:58:01;;;;;;;15.07;8.23;;;;;;;;;;4996309;28;20104;-81
2021/12/27 01:00:32;;;;;;;18.05;9.32;;;;;;;;;;4995593;28;20053;-79
2021/12/27 01:02:58;;;;;;;15.18;8.52;;;;;;;;;;4975468;28;20088;-82
2021/12/27 01:05:28;;;;;;;16.67;8.18;;;;;;;;;;4992201;28;20028;-81
2021/12/27 01:07:55;;;;;;;14.38;5.65;;;;;;;;;;5001007;28;20026;-85
2021/12/27 01:10:50;;;;;;;12.95;6.22;;;;;;;;;;4999758;28;20111;-86
2021/12/27 01:13:25;;;;;;;15.38;7.15;;;;;;;;;;4998780;28;20033;-84
2021/12/27 01:16:10;;;;;;;12.18;5.93;;;;;;;;;;4981267;28;20049;-84
2021/12/27 01:18:39;;;;;;;9.15;3.55;;;;;;;;;;5001724;28;20040;-86
2021/12/27 01:21:11;;;;;;;10.57;3.33;;;;;;;;;;4994171;28;20048;-84
2021/12/27 01:23:39;;;;;;;9.82;2.88;;;;;;;;;;5002213;28;20143;-84
2021/12/27 01:26:37;;;;;;;10.52;3.10;;;;;;;;;;4998275;28;20030;-85
2021/12/27 01:29:07;;;;;;;;;;;;;;;;;;4999834;28;21013;-85
2021/12/27 01:31:37;;;;;;;9.73;2.72;;;;;;;;;;5004262;28;20035;-85
2021/12/27 01:34:06;;;;;;;11.20;3.88;;;;;;;;;;5000287;28;21579;-84
2021/12/27 01:36:34;;;;;;;13.38;3.97;;;;;;;;;;4996352;28;20045;-84
2021/12/27 01:39:07;;;;;;;11.98;3.28;;;;;;;;;;4999986;28;20517;-85
2021/12/27 01:41:33;;;;;;;12.85;3.78;;;;;;;;;;5000536;28;20192;-84
2021/12/27 01:44:01;;;;;;;;;;;;;;;;;;4996102;28;20156;-85
2021/12/27 01:46:29;;;;;;;11.40;3.60;;;;;;;;;;5004442;28;19917;-85
2021/12/27 01:48:57;;;;;;;13.88;4.22;;;;;;;;;;4999795;28;20103;-85
2021/12/27 01:51:27;;;;;;;12.80;4.45;;;;;;;;;;5009100;28;20064;-84
2021/12/27 01:53:55;;;;;;;12.30;3.72;;;;;;;;;;5003810;28;20038;-85
2021/12/27 01:56:22;;;;;;;12.50;3.28;;;;;;;;;;4985885;28;20045;-86
2021/12/27 01:58:51;;;;;;;9.90;3.15;;;;;;;;;;5000660;28;20556;-86
2021/12/27 02:01:18;;;;;;;8.88;2.55;;;;;;;;;;5017040;28;20033;-85
2021/12/27 02:03:46;;;;;;;8.93;2.20;;;;;;;;;;5000621;28;20042;-86
2021/12/27 02:06:15;;;;;;;9.40;2.00;;;;;;;;;;4986089;28;20120;-81
2021/12/27 02:08:44;;;;;;;9.07;3.08;;;;;;;;;;4996233;28;20040;-81
2021/12/27 02:11:13;;;;;;;10.82;2.40;;;;;;;;;;5005694;28;20037;-81
2021/12/27 02:13:42;;;;;;;12.38;2.40;;;;;;;;;;4989292;28;20624;-81
2021/12/27 02:16:09;;;;;;;12.45;3.85;;;;;;;;;;5007245;28;20040;-81
2021/12/27 02:18:40;;;;;;;9.63;3.03;;;;;;;;;;4987595;28;20035;-81
2021/12/27 02:21:09;;;;;;;10.90;1.90;;;;;;;;;;4997567;28;20029;-80
2021/12/27 02:23:39;;;;;;;13.32;2.75;;;;;;;;;;5005021;28;20037;-80
2021/12/27 02:26:05;;;;;;;10.40;2.17;;;;;;;;;;4999346;28;20055;-81
2021/12/27 02:28:32;;;;;;;12.88;2.17;;;;;;;;;;4984460;28;20034;-82
2021/12/27 02:30:58;;;;;;;;;;;;;;;;;;4999572;28;20060;-81
2021/12/27 02:33:26;;;;;;;11.60;3.50;;;;;;;;;;5001935;28;20410;-80
2021/12/27 02:35:56;;;;;;;11.07;3.33;;;;;;;;;;4999111;28;20440;-87
2021/12/27 02:38:25;;;;;;;11.10;2.72;;;;;;;;;;5001888;28;20029;-80
2021/12/27 02:40:53;;;;;;;11.65;3.58;;;;;;;;;;4999001;28;20048;-81
2021/12/27 02:43:22;;;;;;;19.23;8.48;;;;;;;;;;5006851;28;20025;-80
2021/12/27 02:45:57;;;;;;;10.43;1.77;;;;;;;;;;5003919;28;20087;-82
2021/12/27 02:48:30;;;;;;;8.47;1.80;;;;;;;;;;5003606;28;20700;-82
2021/12/27 02:50:58;;;;;;;8.55;1.80;;;;;;;;;;4982029;28;20275;-83
2021/12/27 02:53:28;;;;;;;8.68;2.15;;;;;;;;;;5003534;28;20029;-82
2021/12/27 02:55:58;;;;;;;8.93;1.85;;;;;;;;;;5000448;28;20053;-82
2021/12/27 02:58:27;;;;;;;8.80;2.00;;;;;;;;;;5003729;28;20045;-82
2021/12/27 03:00:54;;;;;;;11.18;2.13;;;;;;;;;;4997628;28;20124;-82
2021/12/27 03:03:22;;;;;;;7.45;1.70;;;;;;;;;;4998040;28;20064;-82
2021/12/27 03:05:50;;;;;;;7.45;1.67;;;;;;;;;;4997580;28;20059;-83
2021/12/27 03:08:19;;;;;;;6.90;1.55;;;;;;;;;;5004134;28;20038;-82
2021/12/27 03:10:48;;;;;;;8.30;1.70;;;;;;;;;;4999884;28;20029;-82
2021/12/27 03:13:33;;;;;;;6.28;1.45;;;;;;;;;;5004130;28;20037;-81
2021/12/27 03:16:01;;;;;;;7.15;1.70;;;;;;;;;;5013875;28;20128;-82
2021/12/27 03:18:29;;;;;;;6.50;1.60;;;;;;;;;;5019199;28;20030;-81
2021/12/27 03:20:57;;;;;;;7.75;1.95;;;;;;;;;;5001474;28;20056;-81
2021/12/27 03:23:24;;;;;;;5.90;1.45;;;;;;;;;;5005118;28;20147;-81
2021/12/27 03:25:55;;;;;;;8.00;1.70;;;;;;;;;;4983084;28;20077;-81
2021/12/27 03:28:26;;;;;;;7.13;1.60;;;;;;;;;;5004596;28;20027;-81
2021/12/27 03:30:57;;;;;;;8.50;1.70;;;;;;;;;;5001927;28;20025;-81
2021/12/27 03:33:25;;;;;;;8.23;1.85;;;;;;;;;;5003685;28;20083;-83
2021/12/27 03:36:01;;;;;;;6.20;1.50;;;;;;;;;;5001305;28;20033;-83
2021/12/27 03:38:40;;;;;;;7.57;1.50;;;;;;;;;;5003352;28;20041;-83
2021/12/27 03:41:10;;;;;;;7.47;1.67;;;;;;;;;;5002013;28;20025;-83
2021/12/27 03:43:37;;;;;;;7.55;1.70;;;;;;;;;;5001811;28;20037;-82
2021/12/27 03:46:06;;;;;;;5.07;1.25;;;;;;;;;;5000489;28;20033;-83
2021/12/27 03:48:34;;;;;;;7.55;1.20;;;;;;;;;;5000447;28;20247;-82
2021/12/27 03:51:02;;;;;;;6.97;1.42;;;;;;;;;;5014703;28;20506;-82
2021/12/27 03:53:30;;;;;;;7.38;1.60;;;;;;;;;;5002853;28;20033;-83
2021/12/27 03:56:02;;;;;;;7.05;1.40;;;;;;;;;;4982719;28;20033;-83
2021/12/27 03:58:35;;;;;;;7.40;1.70;;;;;;;;;;4998476;28;20041;-82
2021/12/27 04:01:15;;;;;;;8.65;1.40;;;;;;;;;;4995295;28;20450;-82
2021/12/27 04:03:44;;;;;;;7.10;1.50;;;;;;;;;;4989224;28;20041;-83
2021/12/27 04:06:16;;;;;;;5.68;1.20;;;;;;;;;;4970944;28;20045;-83
2021/12/27 04:08:44;;;;;;;6.43;1.30;;;;;;;;;;5002516;28;20044;-84
2021/12/27 04:11:11;;;;;;;6.10;1.30;;;;;;;;;;4984435;28;20811;-84
2021/12/27 04:13:41;;;;;;;5.97;1.50;;;;;;;;;;5004943;28;20025;-84
2021/12/27 04:16:09;;;;;;;9.02;1.60;;;;;;;;;;4998137;28;20029;-84
2021/12/27 04:18:38;;;;;;;6.95;1.40;;;;;;;;;;4969656;28;20034;-84
2021/12/27 04:21:07;;;;;;;9.02;1.38;;;;;;;;;;4997781;28;20041;-82
2021/12/27 04:23:36;;;;;;;5.53;1.25;;;;;;;;;;4968547;28;20598;-83
2021/12/27 04:26:04;;;;;;;11.85;1.75;;;;;;;;;;4981378;28;20041;-81
2021/12/27 04:28:34;;;;;;;9.38;1.80;;;;;;;;;;4970216;28;20041;-82
2021/12/27 04:31:00;;;;;;;5.15;1.40;;;;;;;;;;4982941;28;20121;-81
2021/12/27 04:33:26;;;;;;;;;;;;;;;;;;4987812;28;20057;-82
2021/12/27 04:35:57;;;;;;;6.55;1.45;;;;;;;;;;5000129;28;19991;-82
2021/12/27 04:38:25;;;;;;;7.88;1.52;;;;;;;;;;4988353;28;20187;-82
2021/12/27 04:40:52;;;;;;;7.97;1.73;;;;;;;;;;4983261;28;20029;-82
2021/12/27 04:43:22;;;;;;;8.20;1.80;;;;;;;;;;4984302;28;20128;-82
2021/12/27 04:45:51;;;;;;;7.72;1.45;;;;;;;;;;4946035;28;20177;-82
2021/12/27 04:48:19;;;;;;;8.02;1.50;;;;;;;;;;4966686;28;20121;-81
2021/12/27 04:50:47;;;;;;;6.40;1.33;;;;;;;;;;4948755;28;20042;-82
2021/12/27 04:53:15;;;;;;;8.88;1.88;;;;;;;;;;4966954;28;20647;-81
2021/12/27 04:55:44;;;;;;;7.10;1.50;;;;;;;;;;4950743;28;20065;-80
2021/12/27 04:58:12;;;;;;;7.35;1.70;;;;;;;;;;4965813;28;20043;-81
2021/12/27 05:00:41;;;;;;;7.93;1.70;;;;;;;;;;4948836;28;20022;-81
2021/12/27 05:03:11;;;;;;;8.82;1.60;;;;;;;;;;4963999;28;20834;-81
2021/12/27 05:05:43;;;;;;;7.43;1.65;;;;;;;;;;4951650;28;21450;-81
2021/12/27 05:08:11;;;;;;;7.28;1.75;;;;;;;;;;4951409;28;20097;-81
2021/12/27 05:10:38;;;;;;;6.95;1.55;;;;;;;;;;4933616;28;20562;-81
2021/12/27 05:13:07;;;;;;;11.38;2.80;;;;;;;;;;4967188;28;20042;-82
2021/12/27 05:15:35;;;;;;;8.15;1.70;;;;;;;;;;4965776;28;20037;-81
2021/12/27 05:18:03;;;;;;;7.95;1.63;;;;;;;;;;4948963;28;20039;-82
2021/12/27 05:20:33;;;;;;;6.85;1.98;;;;;;;;;;4949427;28;20410;-82
2021/12/27 05:23:00;;;;;;;8.50;2.03;;;;;;;;;;4981797;28;20065;-83
2021/12/27 05:25:26;;;;;;;10.10;2.20;;;;;;;;;;4993437;28;20132;-82
2021/12/27 05:27:53;;;;;;;9.82;1.95;;;;;;;;;;5011787;28;20038;-82
2021/12/27 05:30:23;;;;;;;7.55;1.88;;;;;;;;;;5010047;28;20045;-83
2021/12/27 05:32:51;;;;;;;7.90;1.58;;;;;;;;;;4994203;28;20040;-81
2021/12/27 05:35:19;;;;;;;7.20;1.77;;;;;;;;;;4994185;28;20045;-82
2021/12/27 05:37:46;;;;;;;6.35;1.45;;;;;;;;;;4969777;28;20037;-83
2021/12/27 05:40:16;;;;;;;7.63;1.50;;;;;;;;;;4992623;28;20033;-81
2021/12/27 05:42:43;;;;;;;7.75;1.50;;;;;;;;;;4983791;28;20033;-81
2021/12/27 05:45:12;;;;;;;7.45;1.63;;;;;;;;;;4991437;28;20046;-81
2021/12/27 05:47:39;;;;;;;7.65;1.60;;;;;;;;;;5010958;28;20038;-82
2021/12/27 05:50:09;;;;;;;7.03;1.40;;;;;;;;;;5015278;28;20064;-82
2021/12/27 05:52:37;;;;;;;6.80;1.52;;;;;;;;;;5008872;28;20037;-82
2021/12/27 05:55:06;;;;;;;7.78;1.55;;;;;;;;;;5005046;28;20049;-83
2021/12/27 05:57:35;;;;;;;7.22;1.55;;;;;;;;;;5007302;28;20080;-82
2021/12/27 06:00:08;;;;;;;10.60;1.83;;;;;;;;;;5022346;28;20065;-82
2021/12/27 06:02:37;;;;;;;6.53;1.60;;;;;;;;;;5014251;28;21152;-82
2021/12/27 06:05:04;;;;;;;8.07;1.50;;;;;;;;;;5013123;28;20037;-82
2021/12/27 06:07:33;;;;;;;8.55;1.73;;;;;;;;;;4979537;28;20037;-83
2021/12/27 06:10:02;;;;;;;9.25;1.60;;;;;;;;;;5013875;28;20026;-82
2021/12/27 06:12:35;;;;;;;9.48;1.60;;;;;;;;;;5011094;28;20032;-82
2021/12/27 06:15:05;;;;;;;7.53;1.50;;;;;;;;;;5012206;28;20036;-82
2021/12/27 06:17:34;;;;;;;7.20;1.50;;;;;;;;;;5012053;28;20037;-83
2021/12/27 06:20:06;;;;;;;10.75;1.58;;;;;;;;;;5009710;28;20053;-82
2021/12/27 06:22:34;;;;;;;6.82;1.45;;;;;;;;;;5011313;28;20044;-83
2021/12/27 06:25:03;;;;;;;6.90;1.48;;;;;;;;;;5027529;28;20041;-81
2021/12/27 06:27:34;;;;;;;8.27;1.50;;;;;;;;;;5015684;28;20025;-81
2021/12/27 06:30:03;;;;;;;11.52;2.22;;;;;;;;;;5005730;28;20037;-82
2021/12/27 06:32:31;;;;;;;8.20;1.67;;;;;;;;;;5004045;28;20118;-82
2021/12/27 06:34:58;;;;;;;8.57;1.83;;;;;;;;;;5010239;28;20045;-82
2021/12/27 06:37:26;;;;;;;7.95;1.50;;;;;;;;;;5012136;28;20042;-83
2021/12/27 06:39:52;;;;;;;6.05;1.35;;;;;;;;;;4977830;28;20052;-82
2021/12/27 06:42:22;;;;;;;9.57;1.70;;;;;;;;;;5014545;28;20817;-83
2021/12/27 06:44:51;;;;;;;8.82;1.50;;;;;;;;;;5010602;28;20371;-84
2021/12/27 06:47:17;;;;;;;7.50;1.73;;;;;;;;;;5002046;28;20030;-84
2021/12/27 06:49:47;;;;;;;9.13;2.25;;;;;;;;;;5019013;28;20036;-84
2021/12/27 06:52:17;;;;;;;7.88;1.77;;;;;;;;;;5002742;28;20041;-83
2021/12/27 06:54:43;;;;;;;10.50;1.80;;;;;;;;;;4999906;28;20033;-84
2021/12/27 06:57:12;;;;;;;10.80;1.92;;;;;;;;;;5019332;28;20048;-83
2021/12/27 06:59:40;;;;;;;10.48;1.80;;;;;;;;;;5007301;28;20042;-84
2021/12/27 07:02:10;;;;;;;7.95;1.65;;;;;;;;;;5000414;28;20117;-82
2021/12/27 07:04:37;;;;;;;7.53;1.63;;;;;;;;;;5018547;28;20044;-82
2021/12/27 07:07:05;;;;;;;8.60;1.55;;;;;;;;;;5001292;28;21204;-83
2021/12/27 07:09:32;;;;;;;8.68;1.70;;;;;;;;;;5016420;28;20127;-81
2021/12/27 07:11:58;;;;;;;;;;;;;;;;;;4996833;28;20026;-83
2021/12/27 07:14:26;;;;;;;6.25;1.50;;;;;;;;;;5016638;28;19913;-84
2021/12/27 07:16:55;;;;;;;10.25;1.73;;;;;;;;;;5011221;28;20715;-82
2021/12/27 07:19:23;;;;;;;10.30;1.80;;;;;;;;;;5012638;28;20068;-82
2021/12/27 07:21:49;;;;;;;8.93;1.90;;;;;;;;;;5013966;28;20077;-84
2021/12/27 07:24:16;;;;;;;9.13;2.30;;;;;;;;;;5014288;28;20029;-82
2021/12/27 07:26:42;;;;;;;8.07;1.83;;;;;;;;;;5009257;28;20757;-82
2021/12/27 07:29:10;;;;;;;7.63;1.70;;;;;;;;;;5015363;28;20040;-83
2021/12/27 07:31:37;;;;;;;9.25;1.65;;;;;;;;;;5032518;28;20479;-82
2021/12/27 07:34:04;;;;;;;8.98;1.85;;;;;;;;;;5007555;28;20032;-83
2021/12/27 07:36:32;;;;;;;9.85;1.80;;;;;;;;;;5003413;28;20129;-82
2021/12/27 07:38:58;;;;;;;8.30;1.98;;;;;;;;;;5003572;28;20025;-82
2021/12/27 07:41:26;;;;;;;8.52;1.80;;;;;;;;;;5003281;28;20116;-81
2021/12/27 07:43:55;;;;;;;7.82;1.45;;;;;;;;;;5004748;28;20036;-81
2021/12/27 07:46:25;;;;;;;10.75;2.05;;;;;;;;;;5013726;28;20034;-81
2021/12/27 07:48:54;;;;;;;9.20;1.85;;;;;;;;;;5003950;28;20048;-82
2021/12/27 07:51:22;;;;;;;8.43;1.58;;;;;;;;;;5000115;28;20061;-82
2021/12/27 07:53:51;;;;;;;6.65;1.60;;;;;;;;;;4998437;28;20124;-81
2021/12/27 07:56:23;;;;;;;8.65;1.63;;;;;;;;;;5018252;28;20037;-81
2021/12/27 07:58:49;;;;;;;6.18;1.60;;;;;;;;;;4967532;28;20048;-81
2021/12/27 08:01:17;;;;;;;8.13;1.60;;;;;;;;;;5003395;28;20029;-81
2021/12/27 08:03:44;;;;;;;8.15;1.50;;;;;;;;;;5011502;28;20122;-83
2021/12/27 08:06:13;;;;;;;7.57;1.40;;;;;;;;;;5011948;28;20139;-82
2021/12/27 08:08:40;;;;;;;9.70;1.80;;;;;;;;;;5011320;28;20577;-83
2021/12/27 08:11:09;;;;;;;8.32;1.70;;;;;;;;;;4991049;28;20049;-83
2021/12/27 08:13:41;;;;;;;8.73;1.60;;;;;;;;;;4986609;28;20037;-85
2021/12/27 08:16:14;;;;;;;9.35;1.98;;;;;;;;;;4984913;28;20226;-83
2021/12/27 08:18:42;;;;;;;11.18;2.88;;;;;;;;;;4972112;28;20026;-83
2021/12/27 08:21:11;;;;;;;9.75;2.10;;;;;;;;;;4985450;28;20073;-83
2021/12/27 08:23:39;;;;;;;9.63;2.40;;;;;;;;;;4984493;28;20030;-82
2021/12/27 08:26:07;;;;;;;11.48;2.47;;;;;;;;;;4966970;28;20536;-84
2021/12/27 08:28:33;;;;;;;13.73;2.80;;;;;;;;;;4952600;28;20050;-83
2021/12/27 08:31:01;;;;;;;10.50;2.33;;;;;;;;;;4968523;28;20026;-84
2021/12/27 08:33:28;;;;;;;11.50;2.50;;;;;;;;;;4967672;28;20583;-86
2021/12/27 08:35:57;;;;;;;10.70;2.47;;;;;;;;;;4965231;28;20080;-83
2021/12/27 08:38:24;;;;;;;10.52;2.30;;;;;;;;;;4981626;28;20041;-83
2021/12/27 08:40:52;;;;;;;12.98;2.30;;;;;;;;;;4979931;28;20201;-83
2021/12/27 08:43:20;;;;;;;9.88;2.13;;;;;;;;;;4966583;28;20038;-81
2021/12/27 08:45:48;;;;;;;10.27;2.42;;;;;;;;;;4981792;28;20047;-82
2021/12/27 08:48:16;;;;;;;7.97;1.95;;;;;;;;;;4983292;28;20053;-82
2021/12/27 08:50:43;;;;;;;;;;;;;;;;;;4967803;28;20066;-82
2021/12/27 08:53:10;;;;;;;8.05;2.08;;;;;;;;;;4951309;28;19924;-83
2021/12/27 08:55:39;;;;;;;9.57;2.20;;;;;;;;;;4966259;28;20026;-84
2021/12/27 08:58:07;;;;;;;7.25;1.98;;;;;;;;;;4995788;28;20041;-83
2021/12/27 09:00:34;;;;;;;8.45;1.98;;;;;;;;;;5006895;28;20037;-82
2021/12/27 09:03:03;;;;;;;6.97;2.00;;;;;;;;;;4986178;28;20045;-83
2021/12/27 09:05:31;;;;;;;8.13;1.90;;;;;;;;;;5009718;28;20030;-83
2021/12/27 09:07:59;;;;;;;9.23;2.22;;;;;;;;;;5005063;28;20099;-83
2021/12/27 09:10:28;;;;;;;8.75;2.10;;;;;;;;;;5006164;28;20066;-83
2021/12/27 09:13:00;;;;;;;8.02;2.22;;;;;;;;;;5002608;28;20128;-84
2021/12/27 09:15:28;;;;;;;6.93;1.90;;;;;;;;;;4987176;28;20037;-83
2021/12/27 09:17:56;;;;;;;9.18;1.92;;;;;;;;;;5001998;28;20053;-83
2021/12/27 09:20:27;;;;;;;10.27;2.13;;;;;;;;;;4986589;28;20040;-84
2021/12/27 09:22:55;;;;;;;9.07;2.20;;;;;;;;;;5004146;28;20037;-83
2021/12/27 09:25:24;;;;;;;9.05;2.20;;;;;;;;;;5003304;28;20037;-84
2021/12/27 09:27:51;;;;;;;8.25;2.10;;;;;;;;;;5002708;28;20184;-83
2021/12/27 09:30:19;;;;;;;9.18;2.30;;;;;;;;;;4988453;28;20030;-81
2021/12/27 09:32:50;;;;;;;10.07;2.35;;;;;;;;;;5005225;28;20025;-84
2021/12/27 09:35:19;;;;;;;9.18;2.40;;;;;;;;;;5005039;28;20634;-84
2021/12/27 09:37:48;;;;;;;8.95;2.45;;;;;;;;;;5001358;28;20033;-84
2021/12/27 09:40:16;;;;;;;7.68;2.17;;;;;;;;;;4999884;28;20169;-85
2021/12/27 09:42:45;;;;;;;8.48;2.10;;;;;;;;;;4983878;28;20042;-83
2021/12/27 09:45:15;;;;;;;6.82;1.90;;;;;;;;;;4982440;28;20030;-85
2021/12/27 09:47:44;;;;;;;7.95;1.75;;;;;;;;;;4982468;28;20065;-84
2021/12/27 09:50:17;;;;;;;8.73;2.33;;;;;;;;;;4967001;28;20522;-83
2021/12/27 09:52:45;;;;;;;12.20;4.90;;;;;;;;;;4983156;28;20085;-84
2021/12/27 09:55:12;;;;;;;14.93;6.53;;;;;;;;;;4984736;28;20030;-84
2021/12/27 09:57:40;;;;;;;12.15;5.25;;;;;;;;;;5001186;28;20096;-84
2021/12/27 10:00:08;;;;;;;9.23;3.15;;;;;;;;;;4980952;28;20022;-84
2021/12/27 10:02:38;;;;;;;11.35;4.22;;;;;;;;;;4975424;28;20054;-84
2021/12/27 10:05:05;;;;;;;10.52;3.97;;;;;;;;;;4948523;28;20043;-84
2021/12/27 10:07:33;;;;;;;13.23;4.85;;;;;;;;;;4955872;28;21379;-85
2021/12/27 10:10:00;;;;;;;11.95;4.40;;;;;;;;;;4947215;28;20125;-82
2021/12/27 10:12:32;;;;;;;10.90;4.25;;;;;;;;;;4967754;28;20030;-85
2021/12/27 10:15:02;;;;;;;13.00;4.97;;;;;;;;;;4980774;28;20112;-84
2021/12/27 10:17:45;;;;;;;;;;;;;;;;;;;;;
2021/12/27 10:20:28;;;;;;;14.52;5.90;;;;;;;;;;4965825;28;20832;-85
2021/12/27 10:22:57;;;;;;;16.15;6.10;;;;;;;;;;4948468;28;20137;-84
2021/12/27 10:25:26;;;;;;;10.27;3.42;;;;;;;;;;4968656;28;20072;-84
2021/12/27 10:27:55;;;;;;;12.38;5.88;;;;;;;;;;4950658;28;20185;-84
2021/12/27 10:30:24;;;;;;;14.93;5.72;;;;;;;;;;4964629;28;20039;-84
2021/12/27 10:33:09;;;;;;;10.95;4.93;;;;;;;;;;5002962;28;20029;-88
2021/12/27 10:35:39;;;;;;;11.50;4.50;;;;;;;;;;5005701;28;20041;-82
2021/12/27 10:38:15;;;;;;;10.45;3.58;;;;;;;;;;5001339;28;20061;-86
2021/12/27 10:40:50;;;;;;;10.10;3.90;;;;;;;;;;5005132;28;20044;-85
2021/12/27 10:43:19;;;;;;;10.80;4.68;;;;;;;;;;4985725;28;20617;-84
2021/12/27 10:45:47;;;;;;;9.45;3.35;;;;;;;;;;4985427;28;20057;-83
2021/12/27 10:48:22;;;;;;;10.25;3.70;;;;;;;;;;4990307;28;20555;-85
2021/12/27 10:50:50;;;;;;;11.68;3.80;;;;;;;;;;4983044;28;20034;-85
2021/12/27 10:53:16;;;;;;;8.52;2.60;;;;;;;;;;4990147;28;20412;-85
2021/12/27 10:55:46;;;;;;;8.73;3.00;;;;;;;;;;4988761;28;20032;-83
2021/12/27 10:58:23;;;;;;;9.18;2.33;;;;;;;;;;5008013;28;20038;-85
2021/12/27 11:00:55;;;;;;;8.32;2.15;;;;;;;;;;5001761;28;20043;-83
2021/12/27 11:03:23;;;;;;;8.95;2.50;;;;;;;;;;4999835;28;20076;-83
2021/12/27 11:06:03;;;;;;;7.15;2.10;;;;;;;;;;4988701;28;20553;-86
2021/12/27 11:08:30;;;;;;;7.97;2.90;;;;;;;;;;5008946;28;20044;-84
2021/12/27 11:10:58;;;;;;;9.27;3.40;;;;;;;;;;5007204;28;20595;-83
2021/12/27 11:13:26;;;;;;;6.57;1.85;;;;;;;;;;5019938;28;20033;-84
2021/12/27 11:15:52;;;;;;;7.28;1.95;;;;;;;;;;5034914;28;20028;-83
2021/12/27 11:18:20;;;;;;;7.55;2.38;;;;;;;;;;5023909;28;20057;-85
2021/12/27 11:20:47;;;;;;;8.30;2.60;;;;;;;;;;5012201;28;20032;-83
2021/12/27 11:23:16;;;;;;;9.95;2.60;;;;;;;;;;5007192;28;20045;-83
2021/12/27 11:25:44;;;;;;;6.35;1.83;;;;;;;;;;5010289;28;20025;-83
2021/12/27 11:28:31;;;;;;;6.63;1.75;;;;;;;;;;5025189;28;20033;-84
2021/12/27 11:31:00;;;;;;;8.13;1.45;;;;;;;;;;5003633;28;20026;-82
2021/12/27 11:33:26;;;;;;;4.80;1.67;;;;;;;;;;5007551;28;20033;-82
2021/12/27 11:35:58;;;;;;;4.22;1.23;;;;;;;;;;5004786;28;20460;-82
2021/12/27 11:38:30;;;;;;;4.32;0.90;;;;;;;;;;5004808;28;20103;-84
2021/12/27 11:40:57;;;;;;;4.75;1.13;;;;;;;;;;5018508;28;20128;-84
2021/12/27 11:43:25;;;;;;;7.35;1.80;;;;;;;;;;5006004;28;20068;-82
2021/12/27 11:45:55;;;;;;;4.82;1.20;;;;;;;;;;5000005;28;20041;-82
2021/12/27 11:48:25;;;;;;;5.07;1.33;;;;;;;;;;5006222;28;20025;-82
2021/12/27 11:51:06;;;;;;;3.55;0.70;;;;;;;;;;4999543;28;22248;-84
2021/12/27 11:53:44;;;;;;;3.95;1.10;;;;;;;;;;5003155;28;20041;-84
2021/12/27 11:56:11;;;;;;;3.55;1.00;;;;;;;;;;5003176;28;20053;-84
2021/12/27 11:58:39;;;;;;;5.05;1.40;;;;;;;;;;5002884;28;20056;-84
2021/12/27 12:01:30;;;;;;;5.35;1.70;;;;;;;;;;4998287;28;20120;-84
2021/12/27 12:04:00;;;;;;;5.13;1.10;;;;;;;;;;4986570;28;20165;-82
2021/12/27 12:06:41;;;;;;;5.63;0.93;;;;;;;;;;5001036;28;20163;-83
2021/12/27 12:09:10;;;;;;;3.47;0.82;;;;;;;;;;5001953;28;20325;-84
2021/12/27 12:11:37;;;;;;;5.07;1.20;;;;;;;;;;5004397;28;20024;-83
2021/12/27 12:14:23;;;;;;;5.47;1.50;;;;;;;;;;5015181;28;20037;-85
2021/12/27 12:16:51;;;;;;;5.20;1.40;;;;;;;;;;4998998;28;20068;-84
2021/12/27 12:19:17;;;;;;;4.43;1.30;;;;;;;;;;5001030;28;20056;-85
2021/12/27 12:21:47;;;;;;;3.95;1.08;;;;;;;;;;5000417;28;20041;-84
2021/12/27 12:24:22;;;;;;;3.80;1.02;;;;;;;;;;5004826;28;20025;-86
2021/12/27 12:26:50;;;;;;;4.00;1.10;;;;;;;;;;5002898;28;20029;-86
2021/12/27 12:29:17;;;;;;;4.97;1.42;;;;;;;;;;5004520;28;20033;-85
2021/12/27 12:31:44;;;;;;;4.63;1.30;;;;;;;;;;4999031;28;20036;-86
2021/12/27 12:34:18;;;;;;;2.72;0.93;;;;;;;;;;5007107;28;20095;-86
2021/12/27 12:36:52;;;;;;;3.90;1.10;;;;;;;;;;5017946;28;20044;-84
2021/12/27 12:39:20;;;;;;;3.78;1.20;;;;;;;;;;4985034;28;20033;-85
2021/12/27 12:41:49;;;;;;;2.95;1.00;;;;;;;;;;5004916;28;20103;-84
2021/12/27 12:44:17;;;;;;;4.35;1.30;;;;;;;;;;5006687;28;20029;-85
2021/12/27 12:46:48;;;;;;;2.10;0.90;;;;;;;;;;5002717;28;20042;-82
2021/12/27 12:49:20;;;;;;;5.07;1.30;;;;;;;;;;5002594;28;20021;-83
2021/12/27 12:51:59;;;;;;;3.90;0.90;;;;;;;;;;5001553;28;20025;-83
2021/12/27 12:54:40;;;;;;;4.20;0.82;;;;;;;;;;5002683;28;20026;-84
2021/12/27 12:57:08;;;;;;;4.25;0.90;;;;;;;;;;4984755;28;20111;-82
2021/12/27 12:59:47;;;;;;;5.53;1.50;;;;;;;;;;5004766;28;20025;-83
2021/12/27 13:02:17;;;;;;;4.38;1.10;;;;;;;;;;5003485;28;20475;-86
2021/12/27 13:04:47;;;;;;;4.72;1.02;;;;;;;;;;4984204;28;20133;-86
2021/12/27 13:07:17;;;;;;;5.05;1.20;;;;;;;;;;4984737;28;20037;-85
2021/12/27 13:09:47;;;;;;;4.07;0.90;;;;;;;;;;4969040;28;20038;-85
2021/12/27 13:12:23;;;;;;;4.50;1.17;;;;;;;;;;4985393;28;20036;-85
2021/12/27 13:14:52;;;;;;;5.30;1.00;;;;;;;;;;4968431;28;20458;-85
2021/12/27 13:17:22;;;;;;;3.05;0.80;;;;;;;;;;4986466;28;20076;-84
2021/12/27 13:19:58;;;;;;;3.78;0.90;;;;;;;;;;4980874;28;20030;-84
2021/12/27 13:22:45;;;;;;;4.93;1.38;;;;;;;;;;4986722;28;20033;-85
2021/12/27 13:25:10;;;;;;;;;;;;;;;;;;4983294;28;20084;-85
2021/12/27 13:27:40;;;;;;;5.57;1.23;;;;;;;;;;4967427;28;19925;-85
2021/12/27 13:30:13;;;;;;;6.70;1.00;;;;;;;;;;4966430;28;20057;-85
2021/12/27 13:32:43;;;;;;;5.03;1.13;;;;;;;;;;4967108;28;20060;-85
2021/12/27 13:35:12;;;;;;;5.60;1.50;;;;;;;;;;4986166;28;20026;-86
2021/12/27 13:37:42;;;;;;;3.42;0.88;;;;;;;;;;4988070;28;20513;-86
2021/12/27 13:40:21;;;;;;;5.07;1.15;;;;;;;;;;4981922;28;20042;-86
2021/12/27 13:42:50;;;;;;;4.72;0.90;;;;;;;;;;4967882;28;20096;-86
2021/12/27 13:45:19;;;;;;;5.97;1.52;;;;;;;;;;4989964;28;20480;-86
2021/12/27 13:47:54;;;;;;;3.63;1.17;;;;;;;;;;4977029;28;20038;-85
2021/12/27 13:50:31;;;;;;;5.78;1.30;;;;;;;;;;4990089;28;20026;-86
2021/12/27 13:52:59;;;;;;;4.53;1.05;;;;;;;;;;4990685;28;20034;-85
2021/12/27 13:55:30;;;;;;;6.05;1.40;;;;;;;;;;4990724;28;20029;-86
2021/12/27 13:58:12;;;;;;;8.38;1.60;;;;;;;;;;4985496;28;20041;-87
2021/12/27 14:00:39;;;;;;;5.72;1.63;;;;;;;;;;4971535;28;20040;-86
2021/12/27 14:03:23;;;;;;;4.90;1.23;;;;;;;;;;4997495;28;20060;-87
2021/12/27 14:05:56;;;;;;;6.30;1.60;;;;;;;;;;5004261;28;20080;-87
2021/12/27 14:08:25;;;;;;;5.63;1.50;;;;;;;;;;5009162;28;20131;-87
2021/12/27 14:11:07;;;;;;;3.42;0.90;;;;;;;;;;4988518;28;20064;-85
2021/12/27 14:14:02;;;;;;;5.72;1.48;;;;;;;;;;5008330;28;20103;-86
2021/12/27 14:16:43;;;;;;;6.43;1.60;;;;;;;;;;4930387;28;20429;-87
2021/12/27 14:19:16;;;;;;;5.47;1.60;;;;;;;;;;4917092;28;20027;-87
2021/12/27 14:21:54;;;;;;;5.38;2.00;;;;;;;;;;4927655;28;20655;-87
2021/12/27 14:24:31;;;;;;;6.97;2.00;;;;;;;;;;4912396;28;20038;-87
2021/12/27 14:27:01;;;;;;;7.18;2.30;;;;;;;;;;4929426;28;20166;-87
2021/12/27 14:29:29;;;;;;;6.75;1.80;;;;;;;;;;4912105;28;20100;-87
2021/12/27 14:32:02;;;;;;;7.15;2.70;;;;;;;;;;4926375;28;20779;-88
2021/12/27 14:34:46;;;;;;;6.78;2.25;;;;;;;;;;4917331;28;20058;-86
2021/12/27 14:37:16;;;;;;;7.10;2.15;;;;;;;;;;4929709;28;20067;-86
2021/12/27 14:39:43;;;;;;;9.43;2.38;;;;;;;;;;4925722;28;20743;-87
2021/12/27 14:42:11;;;;;;;7.60;2.10;;;;;;;;;;4930666;28;20040;-85
2021/12/27 14:44:48;;;;;;;7.65;2.15;;;;;;;;;;4912114;28;20038;-85
2021/12/27 14:47:16;;;;;;;6.15;1.58;;;;;;;;;;4910422;28;20049;-85
2021/12/27 14:49:44;;;;;;;5.00;1.30;;;;;;;;;;4930004;28;20022;-85
2021/12/27 14:52:13;;;;;;;5.20;1.10;;;;;;;;;;4929955;28;20052;-85
2021/12/27 14:54:41;;;;;;;4.88;1.15;;;;;;;;;;5005612;28;20041;-85
2021/12/27 14:57:09;;;;;;;4.57;1.02;;;;;;;;;;5002939;28;20057;-86
2021/12/27 14:59:36;;;;;;;4.82;1.10;;;;;;;;;;4989633;28;20029;-85